Time,TemperatureF,DewpointF,PressureIn,WindDirection,WindDirectionDegrees,WindSpeedMPH,WindSpeedGustMPH,Humidity,HourlyPrecipIn,Conditions,Clouds,dailyrainin,SoftwareType,DateUTC
2013-02-07 00:09:00,33.3,29.0,30.17,ENE,58,0.0,2.0,84,0.00,,,0.00,weatherlink.com 1.10,2013-02-07 05:09:00,
2013-02-07 00:24:00,33.6,29.0,30.17,ENE,58,0.0,2.0,84,0.00,,,0.00,weatherlink.com 1.10,2013-02-07 05:24:00,
2013-02-07 00:39:00,33.8,30.0,30.16,ENE,64,3.0,4.0,84,0.00,,,0.00,weatherlink.com 1.10,2013-02-07 05:39:00,
2013-02-07 00:54:00,34.1,30.0,30.15,NE,49,0.0,5.0,83,0.00,,,0.00,weatherlink.com 1.10,2013-02-07 05:54:00,
2013-02-07 01:09:00,34.6,30.0,30.14,ENE,64,1.0,4.0,83,0.00,,,0.00,weatherlink.com 1.10,2013-02-07 06:09:00,
2013-02-07 01:24:00,34.7,30.0,30.14,ENE,60,1.0,3.0,82,0.00,,,0.00,weatherlink.com 1.10,2013-02-07 06:24:00,
2013-02-07 01:39:00,34.9,30.0,30.14,ENE,62,0.0,1.0,81,0.00,,,0.00,weatherlink.com 1.10,2013-02-07 06:39:00,
2013-02-07 01:54:00,34.7,30.0,30.14,ENE,62,1.0,2.0,82,0.00,,,0.00,weatherlink.com 1.10,2013-02-07 06:54:00,
2013-02-07 02:09:00,34.2,30.0,30.15,ENE,61,0.0,0.0,83,0.00,,,0.00,weatherlink.com 1.10,2013-02-07 07:09:00,
2013-02-07 02:24:00,33.5,30.0,30.15,ENE,61,0.0,1.0,85,0.00,,,0.00,weatherlink.com 1.10,2013-02-07 07:24:00,
2013-02-07 02:39:00,32.9,29.0,30.15,NNE,25,0.0,3.0,86,0.00,,,0.00,weatherlink.com 1.10,2013-02-07 07:39:00,
2013-02-07 02:54:00,32.4,29.0,30.15,NNE,25,2.0,2.0,87,0.00,,,0.00,weatherlink.com 1.10,2013-02-07 07:54:00,
2013-02-07 03:09:00,32.1,29.0,30.14,NNE,25,2.0,2.0,88,0.00,,,0.00,weatherlink.com 1.10,2013-02-07 08:09:00,
2013-02-07 03:24:00,31.7,29.0,30.14,NNE,25,1.0,1.0,89,0.00,,,0.00,weatherlink.com 1.10,2013-02-07 08:24:00,
2013-02-07 03:39:00,31.5,29.0,30.14,NNE,17,0.0,3.0,90,0.00,,,0.00,weatherlink.com 1.10,2013-02-07 08:39:00,
2013-02-07 03:54:00,31.6,29.0,30.14,NNE,17,1.0,2.0,90,0.00,,,0.00,weatherlink.com 1.10,2013-02-07 08:54:00,
2013-02-07 04:09:00,31.5,29.0,30.13,NNE,17,0.0,2.0,90,0.00,,,0.00,weatherlink.com 1.10,2013-02-07 09:09:00,
2013-02-07 04:25:00,31.5,29.0,30.13,NNE,17,1.0,2.0,91,0.00,,,0.00,weatherlink.com 1.10,2013-02-07 09:25:00,
2013-02-07 04:40:00,31.6,29.0,30.12,NNE,17,2.0,4.0,91,0.00,,,0.00,weatherlink.com 1.10,2013-02-07 09:40:00,
2013-02-07 04:55:00,31.9,30.0,30.12,North,9,2.0,5.0,91,0.00,,,0.00,weatherlink.com 1.10,2013-02-07 09:55:00,
2013-02-07 05:10:00,32.3,30.0,30.11,NNE,21,0.0,4.0,90,0.00,,,0.00,weatherlink.com 1.10,2013-02-07 10:10:00,
2013-02-07 05:25:00,32.5,30.0,30.10,North,355,0.0,4.0,89,0.00,,,0.00,weatherlink.com 1.10,2013-02-07 10:25:00,
2013-02-07 05:40:00,32.9,30.0,30.10,North,355,0.0,1.0,89,0.00,,,0.00,weatherlink.com 1.10,2013-02-07 10:40:00,
2013-02-07 05:55:00,33.0,30.0,30.11,North,360,0.0,3.0,89,0.00,,,0.00,weatherlink.com 1.10,2013-02-07 10:55:00,
2013-02-07 06:10:00,32.8,30.0,30.11,NNE,22,3.0,5.0,89,0.00,,,0.00,weatherlink.com 1.10,2013-02-07 11:10:00,
2013-02-07 06:25:00,32.5,30.0,30.11,NNE,13,2.0,6.0,89,0.00,,,0.00,weatherlink.com 1.10,2013-02-07 11:25:00,
2013-02-07 06:40:00,32.5,30.0,30.11,NNE,13,3.0,5.0,89,0.00,,,0.00,weatherlink.com 1.10,2013-02-07 11:40:00,
2013-02-07 06:55:00,32.6,30.0,30.11,NNE,15,1.0,3.0,89,0.00,,,0.00,weatherlink.com 1.10,2013-02-07 11:55:00,
2013-02-07 07:10:00,32.6,30.0,30.11,NNE,18,0.0,1.0,89,0.00,,,0.00,weatherlink.com 1.10,2013-02-07 12:10:00,
2013-02-07 07:25:00,32.3,30.0,30.10,NNE,18,2.0,2.0,89,0.00,,,0.00,weatherlink.com 1.10,2013-02-07 12:25:00,
2013-02-07 07:40:00,32.1,29.0,30.10,NNE,17,0.0,2.0,89,0.00,,,0.00,weatherlink.com 1.10,2013-02-07 12:40:00,
2013-02-07 07:55:00,31.7,29.0,30.10,NNE,17,0.0,2.0,90,0.00,,,0.00,weatherlink.com 1.10,2013-02-07 12:55:00,
2013-02-07 08:10:00,31.2,29.0,30.09,NNE,17,0.0,0.0,90,0.00,,,0.00,weatherlink.com 1.10,2013-02-07 13:10:00,
2013-02-07 08:25:00,30.8,29.0,30.08,NNE,17,0.0,1.0,91,0.00,,,0.00,weatherlink.com 1.10,2013-02-07 13:25:00,
2013-02-07 08:40:00,31.2,29.0,30.07,NNE,17,0.0,1.0,92,0.00,,,0.00,weatherlink.com 1.10,2013-02-07 13:40:00,
2013-02-07 08:55:00,31.5,29.0,30.07,NNE,17,0.0,1.0,91,0.00,,,0.00,weatherlink.com 1.10,2013-02-07 13:55:00,
2013-02-07 09:10:00,32.4,30.0,30.07,NNE,17,0.0,0.0,92,0.00,,,0.00,weatherlink.com 1.10,2013-02-07 14:10:00,
2013-02-07 09:25:00,34.7,32.0,30.07,NNE,17,0.0,2.0,90,0.00,,,0.00,weatherlink.com 1.10,2013-02-07 14:25:00,
2013-02-07 09:40:00,38.2,33.0,30.08,NNE,32,0.0,2.0,82,0.00,,,0.00,weatherlink.com 1.10,2013-02-07 14:40:00,
2013-02-07 09:55:00,41.6,34.0,30.07,SE,125,1.0,4.0,75,0.00,,,0.00,weatherlink.com 1.10,2013-02-07 14:55:00,
2013-02-07 10:10:00,43.9,35.0,30.07,SE,125,0.0,2.0,70,0.00,,,0.00,weatherlink.com 1.10,2013-02-07 15:10:00,
2013-02-07 10:25:00,46.3,36.0,30.07,SE,133,0.0,3.0,68,0.00,,,0.00,weatherlink.com 1.10,2013-02-07 15:25:00,
2013-02-07 10:40:00,48.5,36.0,30.06,SE,136,1.0,3.0,63,0.00,,,0.00,weatherlink.com 1.10,2013-02-07 15:40:00,
2013-02-07 10:55:00,50.0,36.0,30.06,SE,128,1.0,4.0,58,0.00,,,0.00,weatherlink.com 1.10,2013-02-07 15:55:00,
2013-02-07 11:11:00,51.4,36.0,30.05,SSE,150,2.0,3.0,57,0.00,,,0.00,weatherlink.com 1.10,2013-02-07 16:11:00,
2013-02-07 11:25:00,52.8,35.0,30.05,South,190,4.0,5.0,52,0.00,,,0.00,weatherlink.com 1.10,2013-02-07 16:25:00,
2013-02-07 11:40:00,54.2,36.0,30.03,SW,230,2.0,5.0,50,0.00,,,0.00,weatherlink.com 1.10,2013-02-07 16:40:00,
2013-02-07 11:56:00,56.4,37.0,30.02,SE,131,4.0,5.0,48,0.00,,,0.00,weatherlink.com 1.10,2013-02-07 16:56:00,
2013-02-07 12:11:00,58.4,36.0,30.02,SE,144,5.0,8.0,44,0.00,,,0.00,weatherlink.com 1.10,2013-02-07 17:11:00,
2013-02-07 12:26:00,59.2,36.0,30.00,SSE,153,3.0,7.0,42,0.00,,,0.00,weatherlink.com 1.10,2013-02-07 17:26:00,
2013-02-07 12:41:00,60.5,37.0,29.99,South,191,3.0,7.0,42,0.00,,,0.00,weatherlink.com 1.10,2013-02-07 17:41:00,
2013-02-07 12:56:00,61.5,39.0,29.97,SSE,162,3.0,7.0,43,0.00,,,0.00,weatherlink.com 1.10,2013-02-07 17:56:00,
2013-02-07 13:11:00,62.5,37.0,29.96,SE,142,5.0,10.0,39,0.00,,,0.00,weatherlink.com 1.10,2013-02-07 18:11:00,
2013-02-07 13:26:00,63.6,36.0,29.95,South,170,5.0,11.0,36,0.00,,,0.00,weatherlink.com 1.10,2013-02-07 18:26:00,
2013-02-07 13:41:00,63.6,37.0,29.94,South,190,6.0,11.0,37,0.00,,,0.00,weatherlink.com 1.10,2013-02-07 18:41:00,
2013-02-07 13:56:00,63.9,38.0,29.94,SE,138,5.0,11.0,38,0.00,,,0.00,weatherlink.com 1.10,2013-02-07 18:56:00,
2013-02-07 14:11:00,63.6,39.0,29.93,SSE,155,5.0,12.0,40,0.00,,,0.00,weatherlink.com 1.10,2013-02-07 19:11:00,
2013-02-07 14:26:00,64.3,40.0,29.92,SE,138,4.0,10.0,41,0.00,,,0.00,weatherlink.com 1.10,2013-02-07 19:26:00,
2013-02-07 14:41:00,65.1,42.0,29.91,SW,215,3.0,12.0,44,0.00,,,0.00,weatherlink.com 1.10,2013-02-07 19:41:00,
2013-02-07 14:56:00,65.1,42.0,29.91,SSW,198,2.0,9.0,44,0.00,,,0.00,weatherlink.com 1.10,2013-02-07 19:56:00,
2013-02-07 15:11:00,65.5,42.0,29.90,SSW,202,3.0,9.0,43,0.00,,,0.00,weatherlink.com 1.10,2013-02-07 20:11:00,
2013-02-07 15:26:00,65.8,44.0,29.90,SW,224,7.0,7.0,45,0.00,,,0.00,weatherlink.com 1.10,2013-02-07 20:26:00,
2013-02-07 15:41:00,65.2,43.0,29.90,South,176,5.0,11.0,45,0.00,,,0.00,weatherlink.com 1.10,2013-02-07 20:41:00,
2013-02-07 15:56:00,64.5,44.0,29.89,South,190,1.0,12.0,47,0.00,,,0.00,weatherlink.com 1.10,2013-02-07 20:56:00,
2013-02-07 16:11:00,64.9,43.0,29.88,SSW,202,3.0,11.0,46,0.00,,,0.00,weatherlink.com 1.10,2013-02-07 21:11:00,
2013-02-07 16:26:00,65.0,44.0,29.88,SW,224,4.0,7.0,46,0.00,,,0.00,weatherlink.com 1.10,2013-02-07 21:26:00,
2013-02-07 16:41:00,65.0,44.0,29.88,SSW,197,5.0,9.0,46,0.00,,,0.00,weatherlink.com 1.10,2013-02-07 21:41:00,
2013-02-07 16:56:00,65.0,44.0,29.87,SW,225,8.0,13.0,46,0.00,,,0.00,weatherlink.com 1.10,2013-02-07 21:56:00,
2013-02-07 17:11:00,64.5,44.0,29.86,SW,229,3.0,8.0,48,0.00,,,0.00,weatherlink.com 1.10,2013-02-07 22:11:00,
2013-02-07 17:26:00,64.0,44.0,29.86,SW,216,2.0,7.0,49,0.00,,,0.00,weatherlink.com 1.10,2013-02-07 22:26:00,
2013-02-07 17:41:00,63.0,44.0,29.86,SW,219,2.0,4.0,51,0.00,,,0.00,weatherlink.com 1.10,2013-02-07 22:41:00,
2013-02-07 17:56:00,61.2,44.0,29.86,SW,236,0.0,5.0,53,0.00,,,0.00,weatherlink.com 1.10,2013-02-07 22:56:00,
2013-02-07 18:12:00,59.8,43.0,29.86,SW,225,0.0,3.0,55,0.00,,,0.00,weatherlink.com 1.10,2013-02-07 23:12:00,
2013-02-07 18:27:00,58.1,44.0,29.85,SW,225,0.0,0.0,59,0.00,,,0.00,weatherlink.com 1.10,2013-02-07 23:27:00,
2013-02-07 18:42:00,54.9,43.0,29.85,SW,225,0.0,0.0,64,0.00,,,0.00,weatherlink.com 1.10,2013-02-07 23:42:00,
2013-02-07 18:57:00,52.7,42.0,29.85,WSW,238,0.0,0.0,68,0.00,,,0.00,weatherlink.com 1.10,2013-02-07 23:57:00,
2013-02-07 19:12:00,51.1,42.0,29.85,WSW,238,0.0,0.0,71,0.00,,,0.00,weatherlink.com 1.10,2013-02-08 00:12:00,
2013-02-07 19:27:00,49.8,41.0,29.85,WSW,238,0.0,0.0,73,0.00,,,0.00,weatherlink.com 1.10,2013-02-08 00:27:00,
2013-02-07 19:43:00,48.5,41.0,29.85,WSW,238,0.0,0.0,76,0.00,,,0.00,weatherlink.com 1.10,2013-02-08 00:43:00,
2013-02-07 19:57:00,47.5,41.0,29.85,WSW,238,0.0,0.0,78,0.00,,,0.00,weatherlink.com 1.10,2013-02-08 00:57:00,
2013-02-07 20:12:00,47.3,41.0,29.84,WSW,238,0.0,0.0,79,0.00,,,0.00,weatherlink.com 1.10,2013-02-08 01:12:00,
2013-02-07 20:27:00,47.3,41.0,29.84,WSW,238,0.0,0.0,80,0.00,,,0.00,weatherlink.com 1.10,2013-02-08 01:27:00,
2013-02-07 20:42:00,47.5,42.0,29.84,WSW,238,0.0,1.0,81,0.00,,,0.00,weatherlink.com 1.10,2013-02-08 01:42:00,
2013-02-07 20:57:00,49.0,42.0,29.84,SW,222,0.0,3.0,78,0.00,,,0.00,weatherlink.com 1.10,2013-02-08 01:57:00,
2013-02-07 21:12:00,50.2,43.0,29.83,South,171,3.0,3.0,77,0.00,,,0.00,weatherlink.com 1.10,2013-02-08 02:12:00,
2013-02-07 21:27:00,52.6,44.0,29.83,SSE,168,3.0,4.0,72,0.00,,,0.00,weatherlink.com 1.10,2013-02-08 02:27:00,
2013-02-07 21:42:00,54.5,44.0,29.82,South,182,4.0,5.0,68,0.00,,,0.00,weatherlink.com 1.10,2013-02-08 02:42:00,
2013-02-07 21:57:00,55.7,44.0,29.82,South,186,4.0,7.0,66,0.00,,,0.00,weatherlink.com 1.10,2013-02-08 02:57:00,
2013-02-07 22:12:00,56.2,44.0,29.82,SSE,151,7.0,10.0,64,0.00,,,0.00,weatherlink.com 1.10,2013-02-08 03:12:00,
2013-02-07 22:27:00,56.1,44.0,29.81,SSW,194,5.0,10.0,64,0.00,,,0.00,weatherlink.com 1.10,2013-02-08 03:27:00,
2013-02-07 22:42:00,55.9,44.0,29.81,South,186,3.0,8.0,65,0.00,,,0.00,weatherlink.com 1.10,2013-02-08 03:42:00,
2013-02-07 22:57:00,54.4,47.0,29.84,WSW,244,6.0,11.0,75,0.02,,,0.02,weatherlink.com 1.10,2013-02-08 03:57:00,
2013-02-07 23:12:00,52.3,48.0,29.83,SW,220,0.0,4.0,84,0.06,,,0.06,weatherlink.com 1.10,2013-02-08 04:12:00,
2013-02-07 23:27:00,51.1,48.0,29.83,WSW,237,2.0,4.0,88,0.09,,,0.09,weatherlink.com 1.10,2013-02-08 04:27:00,
2013-02-07 23:42:00,50.4,48.0,29.83,SW,214,2.0,3.0,91,0.11,,,0.11,weatherlink.com 1.10,2013-02-08 04:42:00,
2013-02-07 23:57:00,50.2,48.0,29.84,WSW,247,3.0,6.0,92,0.10,,,0.13,weatherlink.com 1.10,2013-02-08 04:57:00,